sensor_id;sensor_type;location;lat;lon;timestamp;P1;durP1;ratioP1;P2;durP2;ratioP2
71838;SDS011;59687;37.520;15.068;2022-08-19T00:01:34;15.32;;;4.95;;
71838;SDS011;59687;37.520;15.068;2022-08-19T00:04:04;14.52;;;4.80;;
71838;SDS011;59687;37.520;15.068;2022-08-19T00:06:35;18.60;;;5.18;;
71838;SDS011;59687;37.520;15.068;2022-08-19T00:09:04;17.35;;;5.13;;
71838;SDS011;59687;37.520;15.068;2022-08-19T00:11:32;17.53;;;5.87;;
71838;SDS011;59687;37.520;15.068;2022-08-19T00:13:59;14.85;;;5.78;;
71838;SDS011;59687;37.520;15.068;2022-08-19T00:16:27;11.95;;;6.22;;
71838;SDS011;59687;37.520;15.068;2022-08-19T00:18:54;14.35;;;6.68;;
71838;SDS011;59687;37.520;15.068;2022-08-19T00:21:23;15.60;;;6.97;;
71838;SDS011;59687;37.520;15.068;2022-08-19T00:23:54;15.27;;;6.60;;
71838;SDS011;59687;37.520;15.068;2022-08-19T00:26:24;15.80;;;6.60;;
71838;SDS011;59687;37.520;15.068;2022-08-19T00:28:53;17.23;;;6.63;;
71838;SDS011;59687;37.520;15.068;2022-08-19T00:31:20;15.77;;;7.40;;
71838;SDS011;59687;37.520;15.068;2022-08-19T00:33:50;16.20;;;7.70;;
71838;SDS011;59687;37.520;15.068;2022-08-19T00:36:17;15.20;;;6.90;;
71838;SDS011;59687;37.520;15.068;2022-08-19T00:38:45;19.88;;;7.95;;
71838;SDS011;59687;37.520;15.068;2022-08-19T00:41:14;21.20;;;7.85;;
71838;SDS011;59687;37.520;15.068;2022-08-19T00:43:49;15.90;;;8.00;;
71838;SDS011;59687;37.520;15.068;2022-08-19T00:46:24;19.92;;;8.48;;
71838;SDS011;59687;37.520;15.068;2022-08-19T00:48:51;16.83;;;8.23;;
71838;SDS011;59687;37.520;15.068;2022-08-19T00:51:18;15.45;;;8.32;;
71838;SDS011;59687;37.520;15.068;2022-08-19T00:53:45;17.88;;;8.63;;
71838;SDS011;59687;37.520;15.068;2022-08-19T00:56:12;17.17;;;8.80;;
71838;SDS011;59687;37.520;15.068;2022-08-19T00:58:40;19.35;;;8.60;;
71838;SDS011;59687;37.520;15.068;2022-08-19T01:01:08;15.70;;;7.80;;
71838;SDS011;59687;37.520;15.068;2022-08-19T01:03:35;16.63;;;8.85;;
71838;SDS011;59687;37.520;15.068;2022-08-19T01:06:02;17.48;;;7.97;;
71838;SDS011;59687;37.520;15.068;2022-08-19T01:08:29;16.23;;;8.02;;
71838;SDS011;59687;37.520;15.068;2022-08-19T01:10:58;21.40;;;9.60;;
71838;SDS011;59687;37.520;15.068;2022-08-19T01:13:29;18.87;;;8.30;;
71838;SDS011;59687;37.520;15.068;2022-08-19T01:16:00;19.05;;;8.02;;
71838;SDS011;59687;37.520;15.068;2022-08-19T01:18:30;17.88;;;8.43;;
71838;SDS011;59687;37.520;15.068;2022-08-19T01:21:02;22.08;;;7.68;;
71838;SDS011;59687;37.520;15.068;2022-08-19T01:23:34;11.88;;;7.22;;
71838;SDS011;59687;37.520;15.068;2022-08-19T01:26:20;19.50;;;9.13;;
71838;SDS011;59687;37.520;15.068;2022-08-19T01:28:50;17.10;;;7.53;;
71838;SDS011;59687;37.520;15.068;2022-08-19T01:31:21;18.95;;;8.45;;
71838;SDS011;59687;37.520;15.068;2022-08-19T01:33:51;15.98;;;7.57;;
71838;SDS011;59687;37.520;15.068;2022-08-19T01:36:30;14.93;;;7.18;;
71838;SDS011;59687;37.520;15.068;2022-08-19T01:39:03;13.43;;;7.67;;
71838;SDS011;59687;37.520;15.068;2022-08-19T01:41:34;15.13;;;7.82;;
71838;SDS011;59687;37.520;15.068;2022-08-19T01:44:02;15.20;;;7.03;;
71838;SDS011;59687;37.520;15.068;2022-08-19T01:46:30;12.23;;;6.97;;
71838;SDS011;59687;37.520;15.068;2022-08-19T01:48:59;15.57;;;7.80;;
71838;SDS011;59687;37.520;15.068;2022-08-19T01:51:26;16.93;;;7.03;;
71838;SDS011;59687;37.520;15.068;2022-08-19T01:53:53;16.48;;;7.25;;
71838;SDS011;59687;37.520;15.068;2022-08-19T01:56:20;15.32;;;7.40;;
71838;SDS011;59687;37.520;15.068;2022-08-19T01:58:49;15.80;;;7.25;;
71838;SDS011;59687;37.520;15.068;2022-08-19T02:01:20;14.30;;;6.95;;
71838;SDS011;59687;37.520;15.068;2022-08-19T02:03:47;18.07;;;6.70;;
71838;SDS011;59687;37.520;15.068;2022-08-19T02:06:14;14.55;;;7.10;;
71838;SDS011;59687;37.520;15.068;2022-08-19T02:08:43;15.00;;;7.50;;
71838;SDS011;59687;37.520;15.068;2022-08-19T02:11:18;17.98;;;6.60;;
71838;SDS011;59687;37.520;15.068;2022-08-19T02:13:54;16.05;;;7.57;;
71838;SDS011;59687;37.520;15.068;2022-08-19T02:16:21;17.57;;;6.67;;
71838;SDS011;59687;37.520;15.068;2022-08-19T02:18:48;18.40;;;6.90;;
71838;SDS011;59687;37.520;15.068;2022-08-19T02:21:16;16.13;;;6.15;;
71838;SDS011;59687;37.520;15.068;2022-08-19T02:23:44;12.35;;;6.65;;
71838;SDS011;59687;37.520;15.068;2022-08-19T02:26:12;13.57;;;6.05;;
71838;SDS011;59687;37.520;15.068;2022-08-19T02:28:39;10.87;;;5.60;;
71838;SDS011;59687;37.520;15.068;2022-08-19T02:31:09;11.77;;;5.80;;
71838;SDS011;59687;37.520;15.068;2022-08-19T02:33:37;18.00;;;7.22;;
71838;SDS011;59687;37.520;15.068;2022-08-19T02:36:06;12.82;;;6.63;;
71838;SDS011;59687;37.520;15.068;2022-08-19T02:38:34;14.20;;;6.63;;
71838;SDS011;59687;37.520;15.068;2022-08-19T02:41:03;16.20;;;5.93;;
71838;SDS011;59687;37.520;15.068;2022-08-19T02:43:32;13.70;;;6.10;;
71838;SDS011;59687;37.520;15.068;2022-08-19T02:46:12;13.77;;;5.88;;
71838;SDS011;59687;37.520;15.068;2022-08-19T02:48:53;14.38;;;5.80;;
71838;SDS011;59687;37.520;15.068;2022-08-19T02:51:25;14.77;;;6.43;;
71838;SDS011;59687;37.520;15.068;2022-08-19T02:53:54;16.30;;;5.83;;
71838;SDS011;59687;37.520;15.068;2022-08-19T02:56:21;16.33;;;6.70;;
71838;SDS011;59687;37.520;15.068;2022-08-19T02:58:48;13.82;;;6.00;;
71838;SDS011;59687;37.520;15.068;2022-08-19T03:01:23;15.63;;;6.38;;
71838;SDS011;59687;37.520;15.068;2022-08-19T03:03:58;18.17;;;7.70;;
71838;SDS011;59687;37.520;15.068;2022-08-19T03:06:30;18.43;;;8.20;;
71838;SDS011;59687;37.520;15.068;2022-08-19T03:08:59;17.90;;;7.75;;
71838;SDS011;59687;37.520;15.068;2022-08-19T03:11:28;20.13;;;8.52;;
71838;SDS011;59687;37.520;15.068;2022-08-19T03:13:57;16.00;;;7.80;;
71838;SDS011;59687;37.520;15.068;2022-08-19T03:16:26;18.10;;;7.05;;
71838;SDS011;59687;37.520;15.068;2022-08-19T03:18:56;19.33;;;8.40;;
71838;SDS011;59687;37.520;15.068;2022-08-19T03:21:28;16.35;;;8.85;;
71838;SDS011;59687;37.520;15.068;2022-08-19T03:23:57;15.75;;;8.65;;
71838;SDS011;59687;37.520;15.068;2022-08-19T03:26:26;14.73;;;8.15;;
71838;SDS011;59687;37.520;15.068;2022-08-19T03:28:53;17.50;;;8.63;;
71838;SDS011;59687;37.520;15.068;2022-08-19T03:31:22;17.00;;;9.07;;
71838;SDS011;59687;37.520;15.068;2022-08-19T03:33:50;14.38;;;7.53;;
71838;SDS011;59687;37.520;15.068;2022-08-19T03:36:20;14.88;;;7.50;;
71838;SDS011;59687;37.520;15.068;2022-08-19T03:38:52;18.15;;;7.97;;
71838;SDS011;59687;37.520;15.068;2022-08-19T03:41:22;19.23;;;7.45;;
71838;SDS011;59687;37.520;15.068;2022-08-19T03:43:51;15.77;;;8.10;;
71838;SDS011;59687;37.520;15.068;2022-08-19T03:46:21;18.08;;;7.25;;
71838;SDS011;59687;37.520;15.068;2022-08-19T03:48:52;21.98;;;8.18;;
71838;SDS011;59687;37.520;15.068;2022-08-19T03:53:48;15.00;;;7.05;;
71838;SDS011;59687;37.520;15.068;2022-08-19T03:56:15;14.87;;;6.77;;
71838;SDS011;59687;37.520;15.068;2022-08-19T03:58:43;11.88;;;5.82;;
71838;SDS011;59687;37.520;15.068;2022-08-19T04:01:14;13.85;;;5.53;;
71838;SDS011;59687;37.520;15.068;2022-08-19T04:03:45;15.98;;;5.72;;
71838;SDS011;59687;37.520;15.068;2022-08-19T04:06:13;15.02;;;4.85;;
71838;SDS011;59687;37.520;15.068;2022-08-19T04:08:45;18.20;;;5.33;;
71838;SDS011;59687;37.520;15.068;2022-08-19T04:11:13;15.98;;;4.65;;
71838;SDS011;59687;37.520;15.068;2022-08-19T04:13:43;14.02;;;4.63;;
71838;SDS011;59687;37.520;15.068;2022-08-19T04:16:10;16.88;;;6.57;;
71838;SDS011;59687;37.520;15.068;2022-08-19T04:18:38;17.80;;;6.22;;
71838;SDS011;59687;37.520;15.068;2022-08-19T04:21:06;15.03;;;6.77;;
71838;SDS011;59687;37.520;15.068;2022-08-19T04:23:34;23.92;;;12.55;;
71838;SDS011;59687;37.520;15.068;2022-08-19T04:26:04;21.83;;;9.50;;
71838;SDS011;59687;37.520;15.068;2022-08-19T04:28:32;19.50;;;7.13;;
71838;SDS011;59687;37.520;15.068;2022-08-19T04:30:59;15.55;;;6.90;;
71838;SDS011;59687;37.520;15.068;2022-08-19T04:33:26;16.07;;;6.23;;
71838;SDS011;59687;37.520;15.068;2022-08-19T04:35:55;14.77;;;6.03;;
71838;SDS011;59687;37.520;15.068;2022-08-19T04:38:23;16.13;;;6.60;;
71838;SDS011;59687;37.520;15.068;2022-08-19T04:40:50;15.52;;;6.28;;
71838;SDS011;59687;37.520;15.068;2022-08-19T04:43:37;18.92;;;7.60;;
71838;SDS011;59687;37.520;15.068;2022-08-19T04:46:09;18.17;;;7.00;;
71838;SDS011;59687;37.520;15.068;2022-08-19T04:48:38;20.17;;;6.90;;
71838;SDS011;59687;37.520;15.068;2022-08-19T04:51:07;14.85;;;6.65;;
71838;SDS011;59687;37.520;15.068;2022-08-19T04:53:37;17.27;;;6.95;;
71838;SDS011;59687;37.520;15.068;2022-08-19T04:56:06;14.90;;;7.32;;
71838;SDS011;59687;37.520;15.068;2022-08-19T04:58:40;19.47;;;7.00;;
71838;SDS011;59687;37.520;15.068;2022-08-19T05:01:09;11.90;;;6.55;;
71838;SDS011;59687;37.520;15.068;2022-08-19T05:03:39;15.57;;;6.60;;
71838;SDS011;59687;37.520;15.068;2022-08-19T05:06:09;17.92;;;6.95;;
71838;SDS011;59687;37.520;15.068;2022-08-19T05:08:39;24.08;;;7.00;;
71838;SDS011;59687;37.520;15.068;2022-08-19T05:11:11;19.30;;;6.23;;
71838;SDS011;59687;37.520;15.068;2022-08-19T05:13:41;17.80;;;6.97;;
71838;SDS011;59687;37.520;15.068;2022-08-19T05:16:09;13.52;;;5.97;;
71838;SDS011;59687;37.520;15.068;2022-08-19T05:18:38;17.48;;;7.03;;
71838;SDS011;59687;37.520;15.068;2022-08-19T05:21:25;15.25;;;6.15;;
71838;SDS011;59687;37.520;15.068;2022-08-19T05:24:12;17.23;;;6.63;;
71838;SDS011;59687;37.520;15.068;2022-08-19T05:26:41;22.60;;;10.50;;
71838;SDS011;59687;37.520;15.068;2022-08-19T05:29:14;18.83;;;7.53;;
71838;SDS011;59687;37.520;15.068;2022-08-19T05:31:43;19.60;;;6.68;;
71838;SDS011;59687;37.520;15.068;2022-08-19T05:34:10;16.95;;;6.00;;
71838;SDS011;59687;37.520;15.068;2022-08-19T05:36:39;18.73;;;6.43;;
71838;SDS011;59687;37.520;15.068;2022-08-19T05:39:08;17.45;;;6.97;;
71838;SDS011;59687;37.520;15.068;2022-08-19T05:41:45;20.85;;;7.57;;
71838;SDS011;59687;37.520;15.068;2022-08-19T05:44:15;13.38;;;6.20;;
71838;SDS011;59687;37.520;15.068;2022-08-19T05:46:43;12.13;;;5.55;;
71838;SDS011;59687;37.520;15.068;2022-08-19T05:49:13;11.80;;;5.47;;
71838;SDS011;59687;37.520;15.068;2022-08-19T05:51:42;17.20;;;6.22;;
71838;SDS011;59687;37.520;15.068;2022-08-19T05:54:09;15.40;;;6.18;;
71838;SDS011;59687;37.520;15.068;2022-08-19T05:56:40;16.08;;;6.13;;
71838;SDS011;59687;37.520;15.068;2022-08-19T05:59:08;19.27;;;6.75;;
71838;SDS011;59687;37.520;15.068;2022-08-19T06:01:38;15.37;;;5.30;;
71838;SDS011;59687;37.520;15.068;2022-08-19T06:04:06;13.75;;;5.75;;
71838;SDS011;59687;37.520;15.068;2022-08-19T06:06:34;15.48;;;6.93;;
71838;SDS011;59687;37.520;15.068;2022-08-19T06:09:06;16.73;;;6.07;;
71838;SDS011;59687;37.520;15.068;2022-08-19T06:11:35;22.23;;;6.88;;
71838;SDS011;59687;37.520;15.068;2022-08-19T06:14:09;17.47;;;5.80;;
71838;SDS011;59687;37.520;15.068;2022-08-19T06:16:38;14.77;;;5.68;;
71838;SDS011;59687;37.520;15.068;2022-08-19T06:19:08;16.30;;;5.88;;
71838;SDS011;59687;37.520;15.068;2022-08-19T06:21:37;16.42;;;5.70;;
71838;SDS011;59687;37.520;15.068;2022-08-19T06:24:08;17.52;;;5.80;;
71838;SDS011;59687;37.520;15.068;2022-08-19T06:26:38;17.23;;;5.70;;
71838;SDS011;59687;37.520;15.068;2022-08-19T06:29:07;18.00;;;7.05;;
71838;SDS011;59687;37.520;15.068;2022-08-19T06:31:40;23.10;;;6.45;;
71838;SDS011;59687;37.520;15.068;2022-08-19T06:34:08;15.38;;;5.63;;
71838;SDS011;59687;37.520;15.068;2022-08-19T06:36:37;19.63;;;6.13;;
71838;SDS011;59687;37.520;15.068;2022-08-19T06:39:11;15.70;;;5.70;;
71838;SDS011;59687;37.520;15.068;2022-08-19T06:41:51;14.27;;;5.93;;
71838;SDS011;59687;37.520;15.068;2022-08-19T06:44:21;14.07;;;5.78;;
71838;SDS011;59687;37.520;15.068;2022-08-19T06:46:49;15.70;;;6.30;;
71838;SDS011;59687;37.520;15.068;2022-08-19T06:49:19;19.85;;;6.75;;
71838;SDS011;59687;37.520;15.068;2022-08-19T06:51:47;18.07;;;6.77;;
71838;SDS011;59687;37.520;15.068;2022-08-19T06:54:16;18.40;;;7.65;;
71838;SDS011;59687;37.520;15.068;2022-08-19T06:56:44;19.20;;;6.35;;
71838;SDS011;59687;37.520;15.068;2022-08-19T06:59:14;18.95;;;6.43;;
71838;SDS011;59687;37.520;15.068;2022-08-19T07:01:45;19.33;;;5.55;;
71838;SDS011;59687;37.520;15.068;2022-08-19T07:04:15;17.87;;;5.53;;
71838;SDS011;59687;37.520;15.068;2022-08-19T07:06:45;20.27;;;6.55;;
71838;SDS011;59687;37.520;15.068;2022-08-19T07:09:15;17.02;;;6.45;;
71838;SDS011;59687;37.520;15.068;2022-08-19T07:11:45;17.15;;;6.43;;
71838;SDS011;59687;37.520;15.068;2022-08-19T07:14:14;22.45;;;6.38;;
71838;SDS011;59687;37.520;15.068;2022-08-19T07:16:45;15.47;;;5.90;;
71838;SDS011;59687;37.520;15.068;2022-08-19T07:19:14;24.75;;;6.72;;
71838;SDS011;59687;37.520;15.068;2022-08-19T07:21:42;17.30;;;6.63;;
71838;SDS011;59687;37.520;15.068;2022-08-19T07:24:09;20.08;;;6.93;;
71838;SDS011;59687;37.520;15.068;2022-08-19T07:26:40;16.95;;;6.88;;
71838;SDS011;59687;37.520;15.068;2022-08-19T07:29:10;20.03;;;6.87;;
71838;SDS011;59687;37.520;15.068;2022-08-19T07:31:37;21.00;;;6.47;;
71838;SDS011;59687;37.520;15.068;2022-08-19T07:34:09;18.33;;;6.43;;
71838;SDS011;59687;37.520;15.068;2022-08-19T07:36:38;18.17;;;6.63;;
71838;SDS011;59687;37.520;15.068;2022-08-19T07:39:10;22.45;;;6.72;;
71838;SDS011;59687;37.520;15.068;2022-08-19T07:41:42;15.37;;;6.30;;
71838;SDS011;59687;37.520;15.068;2022-08-19T07:44:09;15.80;;;6.38;;
71838;SDS011;59687;37.520;15.068;2022-08-19T07:46:39;23.52;;;7.22;;
71838;SDS011;59687;37.520;15.068;2022-08-19T07:49:11;18.00;;;6.55;;
71838;SDS011;59687;37.520;15.068;2022-08-19T07:51:47;16.92;;;6.18;;
71838;SDS011;59687;37.520;15.068;2022-08-19T07:54:35;17.17;;;6.13;;
71838;SDS011;59687;37.520;15.068;2022-08-19T07:57:04;18.95;;;6.68;;
71838;SDS011;59687;37.520;15.068;2022-08-19T07:59:31;22.23;;;6.97;;
71838;SDS011;59687;37.520;15.068;2022-08-19T08:01:58;19.17;;;6.47;;
71838;SDS011;59687;37.520;15.068;2022-08-19T08:04:28;17.45;;;6.35;;
71838;SDS011;59687;37.520;15.068;2022-08-19T08:07:15;20.27;;;7.20;;
71838;SDS011;59687;37.520;15.068;2022-08-19T08:10:01;18.95;;;6.03;;
71838;SDS011;59687;37.520;15.068;2022-08-19T08:12:31;16.13;;;6.43;;
71838;SDS011;59687;37.520;15.068;2022-08-19T08:15:09;17.38;;;6.45;;
71838;SDS011;59687;37.520;15.068;2022-08-19T08:17:38;20.10;;;7.13;;
71838;SDS011;59687;37.520;15.068;2022-08-19T08:20:08;13.90;;;6.80;;
71838;SDS011;59687;37.520;15.068;2022-08-19T08:22:36;24.63;;;7.40;;
71838;SDS011;59687;37.520;15.068;2022-08-19T08:25:22;22.25;;;6.18;;
71838;SDS011;59687;37.520;15.068;2022-08-19T08:27:51;18.80;;;5.35;;
71838;SDS011;59687;37.520;15.068;2022-08-19T08:30:19;19.70;;;6.43;;
71838;SDS011;59687;37.520;15.068;2022-08-19T08:32:50;20.63;;;7.53;;
71838;SDS011;59687;37.520;15.068;2022-08-19T08:35:19;17.75;;;6.13;;
71838;SDS011;59687;37.520;15.068;2022-08-19T08:37:48;18.33;;;7.10;;
71838;SDS011;59687;37.520;15.068;2022-08-19T08:46:00;17.10;;;6.30;;
71838;SDS011;59687;37.520;15.068;2022-08-19T08:48:36;19.95;;;6.40;;
71838;SDS011;59687;37.520;15.068;2022-08-19T08:51:14;16.80;;;6.03;;
71838;SDS011;59687;37.520;15.068;2022-08-19T08:53:47;22.90;;;6.43;;
71838;SDS011;59687;37.520;15.068;2022-08-19T08:56:17;21.55;;;6.70;;
71838;SDS011;59687;37.520;15.068;2022-08-19T08:58:57;20.63;;;6.17;;
71838;SDS011;59687;37.520;15.068;2022-08-19T09:01:26;19.55;;;6.60;;
71838;SDS011;59687;37.520;15.068;2022-08-19T09:03:54;15.23;;;5.60;;
71838;SDS011;59687;37.520;15.068;2022-08-19T09:09:29;19.45;;;6.32;;
71838;SDS011;59687;37.520;15.068;2022-08-19T09:14:53;21.08;;;6.35;;
71838;SDS011;59687;37.520;15.068;2022-08-19T09:17:28;19.10;;;6.72;;
71838;SDS011;59687;37.520;15.068;2022-08-19T09:20:08;19.73;;;6.45;;
71838;SDS011;59687;37.520;15.068;2022-08-19T09:22:47;20.13;;;6.32;;
71838;SDS011;59687;37.520;15.068;2022-08-19T09:25:17;24.70;;;6.63;;
71838;SDS011;59687;37.520;15.068;2022-08-19T09:27:46;18.13;;;6.05;;
71838;SDS011;59687;37.520;15.068;2022-08-19T09:30:17;16.35;;;5.93;;
71838;SDS011;59687;37.520;15.068;2022-08-19T09:32:48;21.33;;;5.88;;
71838;SDS011;59687;37.520;15.068;2022-08-19T09:35:15;23.15;;;6.45;;
71838;SDS011;59687;37.520;15.068;2022-08-19T09:37:42;21.50;;;6.40;;
71838;SDS011;59687;37.520;15.068;2022-08-19T09:40:10;20.60;;;6.55;;
71838;SDS011;59687;37.520;15.068;2022-08-19T09:42:38;17.70;;;6.18;;
71838;SDS011;59687;37.520;15.068;2022-08-19T09:45:05;18.33;;;6.45;;
71838;SDS011;59687;37.520;15.068;2022-08-19T09:47:33;17.58;;;7.20;;
71838;SDS011;59687;37.520;15.068;2022-08-19T09:50:05;19.93;;;6.43;;
71838;SDS011;59687;37.520;15.068;2022-08-19T09:52:33;20.80;;;6.97;;
71838;SDS011;59687;37.520;15.068;2022-08-19T09:55:06;20.63;;;7.15;;
71838;SDS011;59687;37.520;15.068;2022-08-19T09:57:35;16.65;;;6.68;;
71838;SDS011;59687;37.520;15.068;2022-08-19T10:00:03;20.80;;;6.75;;
71838;SDS011;59687;37.520;15.068;2022-08-19T10:02:33;16.03;;;6.40;;
71838;SDS011;59687;37.520;15.068;2022-08-19T10:05:02;20.40;;;6.45;;
71838;SDS011;59687;37.520;15.068;2022-08-19T10:07:48;24.88;;;7.38;;
71838;SDS011;59687;37.520;15.068;2022-08-19T10:10:15;20.50;;;7.22;;
71838;SDS011;59687;37.520;15.068;2022-08-19T10:12:42;21.65;;;6.82;;
71838;SDS011;59687;37.520;15.068;2022-08-19T10:15:12;17.27;;;7.23;;
71838;SDS011;59687;37.520;15.068;2022-08-19T10:17:41;21.05;;;7.82;;
71838;SDS011;59687;37.520;15.068;2022-08-19T10:20:08;16.75;;;7.30;;
71838;SDS011;59687;37.520;15.068;2022-08-19T10:22:35;20.30;;;7.03;;
71838;SDS011;59687;37.520;15.068;2022-08-19T10:25:04;17.92;;;7.30;;
71838;SDS011;59687;37.520;15.068;2022-08-19T10:27:34;21.60;;;7.37;;
71838;SDS011;59687;37.520;15.068;2022-08-19T10:30:01;23.00;;;7.55;;
71838;SDS011;59687;37.520;15.068;2022-08-19T10:32:27;20.92;;;6.60;;
71838;SDS011;59687;37.520;15.068;2022-08-19T10:34:55;19.55;;;6.68;;
71838;SDS011;59687;37.520;15.068;2022-08-19T10:37:23;17.42;;;6.47;;
71838;SDS011;59687;37.520;15.068;2022-08-19T10:39:51;17.27;;;6.30;;
71838;SDS011;59687;37.520;15.068;2022-08-19T10:42:19;16.83;;;6.63;;
71838;SDS011;59687;37.520;15.068;2022-08-19T10:44:47;22.08;;;6.68;;
71838;SDS011;59687;37.520;15.068;2022-08-19T10:47:14;15.93;;;5.80;;
71838;SDS011;59687;37.520;15.068;2022-08-19T10:49:41;19.05;;;5.70;;
71838;SDS011;59687;37.520;15.068;2022-08-19T10:52:44;19.53;;;6.60;;
71838;SDS011;59687;37.520;15.068;2022-08-19T10:55:14;18.90;;;5.78;;
71838;SDS011;59687;37.520;15.068;2022-08-19T10:58:00;17.33;;;5.82;;
71838;SDS011;59687;37.520;15.068;2022-08-19T11:00:28;21.73;;;6.50;;
71838;SDS011;59687;37.520;15.068;2022-08-19T11:02:57;19.40;;;6.45;;
71838;SDS011;59687;37.520;15.068;2022-08-19T11:05:24;18.67;;;7.00;;
71838;SDS011;59687;37.520;15.068;2022-08-19T11:07:51;19.65;;;6.45;;
71838;SDS011;59687;37.520;15.068;2022-08-19T11:10:21;16.02;;;6.10;;
71838;SDS011;59687;37.520;15.068;2022-08-19T11:12:49;17.92;;;6.35;;
71838;SDS011;59687;37.520;15.068;2022-08-19T11:15:20;17.38;;;7.15;;
71838;SDS011;59687;37.520;15.068;2022-08-19T11:17:49;15.77;;;6.07;;
71838;SDS011;59687;37.520;15.068;2022-08-19T11:20:20;15.82;;;6.28;;
71838;SDS011;59687;37.520;15.068;2022-08-19T11:22:47;18.38;;;6.38;;
71838;SDS011;59687;37.520;15.068;2022-08-19T11:25:15;21.08;;;6.13;;
71838;SDS011;59687;37.520;15.068;2022-08-19T11:27:42;20.25;;;6.63;;
71838;SDS011;59687;37.520;15.068;2022-08-19T11:30:12;17.63;;;6.20;;
71838;SDS011;59687;37.520;15.068;2022-08-19T11:32:40;18.88;;;6.53;;
71838;SDS011;59687;37.520;15.068;2022-08-19T11:35:09;16.05;;;6.13;;
71838;SDS011;59687;37.520;15.068;2022-08-19T11:37:37;17.80;;;5.88;;
71838;SDS011;59687;37.520;15.068;2022-08-19T11:40:05;20.27;;;6.32;;
71838;SDS011;59687;37.520;15.068;2022-08-19T11:42:33;17.00;;;6.07;;
71838;SDS011;59687;37.520;15.068;2022-08-19T11:45:19;18.35;;;6.25;;
71838;SDS011;59687;37.520;15.068;2022-08-19T11:47:46;21.88;;;6.90;;
71838;SDS011;59687;37.520;15.068;2022-08-19T11:50:14;15.20;;;6.30;;
71838;SDS011;59687;37.520;15.068;2022-08-19T11:52:42;22.00;;;5.75;;
71838;SDS011;59687;37.520;15.068;2022-08-19T11:55:11;20.47;;;6.47;;
71838;SDS011;59687;37.520;15.068;2022-08-19T11:57:41;16.55;;;6.72;;
71838;SDS011;59687;37.520;15.068;2022-08-19T12:00:09;16.50;;;6.00;;
71838;SDS011;59687;37.520;15.068;2022-08-19T12:02:41;17.20;;;5.90;;
71838;SDS011;59687;37.520;15.068;2022-08-19T12:05:08;13.85;;;6.10;;
71838;SDS011;59687;37.520;15.068;2022-08-19T12:07:37;23.30;;;6.30;;
71838;SDS011;59687;37.520;15.068;2022-08-19T12:10:05;18.95;;;6.22;;
71838;SDS011;59687;37.520;15.068;2022-08-19T12:12:32;19.48;;;6.32;;
71838;SDS011;59687;37.520;15.068;2022-08-19T12:14:58;20.15;;;7.22;;
71838;SDS011;59687;37.520;15.068;2022-08-19T12:17:26;17.40;;;6.45;;
71838;SDS011;59687;37.520;15.068;2022-08-19T12:19:54;18.20;;;6.00;;
71838;SDS011;59687;37.520;15.068;2022-08-19T12:22:21;17.13;;;6.35;;
71838;SDS011;59687;37.520;15.068;2022-08-19T12:24:48;17.65;;;6.35;;
71838;SDS011;59687;37.520;15.068;2022-08-19T12:27:19;15.48;;;6.18;;
71838;SDS011;59687;37.520;15.068;2022-08-19T12:29:46;18.80;;;6.57;;
71838;SDS011;59687;37.520;15.068;2022-08-19T12:32:13;19.73;;;6.60;;
71838;SDS011;59687;37.520;15.068;2022-08-19T12:34:41;17.63;;;6.47;;
71838;SDS011;59687;37.520;15.068;2022-08-19T12:37:08;19.33;;;6.97;;
71838;SDS011;59687;37.520;15.068;2022-08-19T12:39:36;19.42;;;6.30;;
71838;SDS011;59687;37.520;15.068;2022-08-19T12:42:05;16.92;;;6.60;;
71838;SDS011;59687;37.520;15.068;2022-08-19T12:44:32;18.37;;;6.57;;
71838;SDS011;59687;37.520;15.068;2022-08-19T12:46:59;20.17;;;6.90;;
71838;SDS011;59687;37.520;15.068;2022-08-19T12:49:28;16.48;;;6.63;;
71838;SDS011;59687;37.520;15.068;2022-08-19T12:51:55;20.20;;;6.93;;
71838;SDS011;59687;37.520;15.068;2022-08-19T12:54:24;19.23;;;7.05;;
71838;SDS011;59687;37.520;15.068;2022-08-19T12:56:52;15.83;;;6.80;;
71838;SDS011;59687;37.520;15.068;2022-08-19T12:59:19;17.00;;;6.97;;
71838;SDS011;59687;37.520;15.068;2022-08-19T13:01:46;15.63;;;5.97;;
71838;SDS011;59687;37.520;15.068;2022-08-19T13:04:13;17.73;;;6.43;;
71838;SDS011;59687;37.520;15.068;2022-08-19T13:06:40;19.08;;;6.95;;
71838;SDS011;59687;37.520;15.068;2022-08-19T13:09:07;18.27;;;6.27;;
71838;SDS011;59687;37.520;15.068;2022-08-19T13:11:34;20.90;;;6.45;;
71838;SDS011;59687;37.520;15.068;2022-08-19T13:14:03;21.67;;;7.18;;
71838;SDS011;59687;37.520;15.068;2022-08-19T13:16:31;17.55;;;6.72;;
71838;SDS011;59687;37.520;15.068;2022-08-19T13:18:58;19.30;;;7.00;;
71838;SDS011;59687;37.520;15.068;2022-08-19T13:21:26;16.83;;;7.47;;
71838;SDS011;59687;37.520;15.068;2022-08-19T13:23:59;18.52;;;7.78;;
71838;SDS011;59687;37.520;15.068;2022-08-19T13:26:26;18.25;;;6.72;;
71838;SDS011;59687;37.520;15.068;2022-08-19T13:28:52;15.82;;;6.20;;
71838;SDS011;59687;37.520;15.068;2022-08-19T13:31:39;19.65;;;7.80;;
71838;SDS011;59687;37.520;15.068;2022-08-19T13:34:29;15.40;;;6.50;;
71838;SDS011;59687;37.520;15.068;2022-08-19T13:36:59;17.30;;;6.10;;
71838;SDS011;59687;37.520;15.068;2022-08-19T13:39:31;15.27;;;6.82;;
71838;SDS011;59687;37.520;15.068;2022-08-19T13:41:59;19.83;;;6.80;;
71838;SDS011;59687;37.520;15.068;2022-08-19T13:44:28;17.95;;;6.32;;
71838;SDS011;59687;37.520;15.068;2022-08-19T13:47:00;17.63;;;7.23;;
71838;SDS011;59687;37.520;15.068;2022-08-19T13:49:33;15.65;;;7.03;;
71838;SDS011;59687;37.520;15.068;2022-08-19T13:52:03;18.33;;;6.18;;
71838;SDS011;59687;37.520;15.068;2022-08-19T13:54:32;17.58;;;6.10;;
71838;SDS011;59687;37.520;15.068;2022-08-19T13:57:00;22.40;;;6.93;;
71838;SDS011;59687;37.520;15.068;2022-08-19T13:59:27;22.50;;;7.13;;
71838;SDS011;59687;37.520;15.068;2022-08-19T14:01:57;16.85;;;6.32;;
71838;SDS011;59687;37.520;15.068;2022-08-19T14:04:27;25.70;;;6.97;;
71838;SDS011;59687;37.520;15.068;2022-08-19T14:06:53;17.48;;;6.03;;
71838;SDS011;59687;37.520;15.068;2022-08-19T14:09:21;24.42;;;6.35;;
71838;SDS011;59687;37.520;15.068;2022-08-19T14:11:49;19.67;;;6.30;;
71838;SDS011;59687;37.520;15.068;2022-08-19T14:14:17;17.67;;;6.43;;
71838;SDS011;59687;37.520;15.068;2022-08-19T14:16:44;16.70;;;6.15;;
71838;SDS011;59687;37.520;15.068;2022-08-19T14:19:11;23.45;;;6.72;;
71838;SDS011;59687;37.520;15.068;2022-08-19T14:21:37;22.27;;;6.40;;
71838;SDS011;59687;37.520;15.068;2022-08-19T14:24:08;21.23;;;6.60;;
71838;SDS011;59687;37.520;15.068;2022-08-19T14:26:35;22.77;;;6.45;;
71838;SDS011;59687;37.520;15.068;2022-08-19T14:29:02;17.52;;;6.97;;
71838;SDS011;59687;37.520;15.068;2022-08-19T14:31:29;18.45;;;6.20;;
71838;SDS011;59687;37.520;15.068;2022-08-19T14:33:57;17.30;;;6.15;;
71838;SDS011;59687;37.520;15.068;2022-08-19T14:36:24;19.10;;;6.10;;
71838;SDS011;59687;37.520;15.068;2022-08-19T14:38:51;16.88;;;5.88;;
71838;SDS011;59687;37.520;15.068;2022-08-19T14:41:20;16.27;;;6.47;;
71838;SDS011;59687;37.520;15.068;2022-08-19T14:43:49;18.42;;;6.13;;
71838;SDS011;59687;37.520;15.068;2022-08-19T14:46:20;21.42;;;5.63;;
71838;SDS011;59687;37.520;15.068;2022-08-19T14:48:49;19.23;;;6.67;;
71838;SDS011;59687;37.520;15.068;2022-08-19T14:51:17;16.67;;;5.75;;